Time,TemperatureF,DewpointF,PressureIn,WindDirection,WindDirectionDegrees,WindSpeedMPH,WindSpeedGustMPH,Humidity,HourlyPrecipIn,Conditions,Clouds,dailyrainin,SoftwareType,DateUTC
2017-12-12 00:00:00,14.6,7.8,30.26,NW,319,5.0,14.0,74,0.00,,BKN018,0.07,VWS V15.00,2017-12-12 06:00:00,
2017-12-12 00:10:00,14.1,7.9,30.26,WNW,300,6.0,10.0,76,0.00,,BKN018,0.00,VWS V15.00,2017-12-12 06:10:00,
2017-12-12 00:15:00,13.8,7.9,30.26,NNW,334,8.0,11.0,77,0.00,,BKN018,0.00,VWS V15.00,2017-12-12 06:15:00,
2017-12-12 00:25:00,13.3,7.4,30.26,WNW,298,8.0,14.0,77,0.00,,BKN018,0.00,VWS V15.00,2017-12-12 06:25:00,
2017-12-12 00:30:00,13.1,7.0,30.26,NW,322,11.0,14.0,76,0.00,,BKN018,0.00,VWS V15.00,2017-12-12 06:30:00,
2017-12-12 00:35:00,12.9,6.5,30.26,NW,321,8.0,13.0,75,0.00,,BKN018,0.00,VWS V15.00,2017-12-12 06:35:00,
2017-12-12 00:40:00,12.8,6.4,30.26,WNW,298,4.0,13.0,75,0.00,,BKN018,0.00,VWS V15.00,2017-12-12 06:40:00,
2017-12-12 00:45:00,12.6,6.2,30.26,NW,321,8.0,13.0,75,0.00,,BKN018,0.00,VWS V15.00,2017-12-12 06:45:00,
2017-12-12 00:55:00,12.3,5.9,30.26,WNW,297,8.0,13.0,75,0.00,,BKN018,0.00,VWS V15.00,2017-12-12 06:55:00,
2017-12-12 01:05:00,12.1,5.4,30.26,NW,317,6.0,13.0,74,0.00,,BKN018,0.00,VWS V15.00,2017-12-12 07:05:00,
2017-12-12 01:10:00,11.9,5.2,30.26,WNW,301,11.0,14.0,74,0.00,,BKN018,0.00,VWS V15.00,2017-12-12 07:10:00,
2017-12-12 01:15:00,11.7,5.0,30.26,WNW,301,9.0,14.0,74,0.00,,BKN018,0.00,VWS V15.00,2017-12-12 07:15:00,
2017-12-12 01:25:00,11.6,4.9,30.26,NNW,329,2.0,14.0,74,0.00,,BKN018,0.00,VWS V15.00,2017-12-12 07:25:00,
2017-12-12 01:45:00,10.9,4.6,30.27,NW,315,8.0,13.0,75,0.00,,BKN018,0.00,VWS V15.00,2017-12-12 07:45:00,
2017-12-12 01:50:00,10.7,4.6,30.27,NW,308,2.0,13.0,76,0.00,,BKN018,0.00,VWS V15.00,2017-12-12 07:50:00,
2017-12-12 01:55:00,10.5,4.4,30.27,NW,317,7.0,13.0,76,0.00,,BKN018,0.00,VWS V15.00,2017-12-12 07:55:00,
2017-12-12 02:00:00,10.4,4.3,30.27,WNW,286,1.0,1.0,76,0.00,,BKN018,0.00,VWS V15.00,2017-12-12 08:00:00,
2017-12-12 02:05:00,10.4,4.3,30.27,WNW,302,6.0,11.0,76,0.00,,BKN018,0.00,VWS V15.00,2017-12-12 08:05:00,
2017-12-12 02:10:00,10.2,4.2,30.27,WNW,298,8.0,12.0,76,0.00,,BKN018,0.00,VWS V15.00,2017-12-12 08:10:00,
2017-12-12 02:15:00,10.0,4.0,30.27,WNW,298,5.0,12.0,76,0.00,,BKN018,0.00,VWS V15.00,2017-12-12 08:15:00,
2017-12-12 02:20:00,9.9,3.9,30.27,WNW,302,6.0,12.0,76,0.00,,BKN018,0.00,VWS V15.00,2017-12-12 08:20:00,
2017-12-12 02:25:00,9.9,4.2,30.27,NW,307,5.0,12.0,77,0.00,,BKN018,0.00,VWS V15.00,2017-12-12 08:25:00,
2017-12-12 02:30:00,9.7,3.7,30.28,NW,325,4.0,5.0,76,0.00,,BKN018,0.00,VWS V15.00,2017-12-12 08:30:00,
2017-12-12 02:40:00,9.5,3.5,30.28,NW,315,7.0,11.0,76,0.00,,BKN018,0.00,VWS V15.00,2017-12-12 08:40:00,
2017-12-12 02:50:00,9.3,3.3,30.28,NW,311,2.0,11.0,76,0.00,,BKN018,0.00,VWS V15.00,2017-12-12 08:50:00,
2017-12-12 02:55:00,9.2,3.2,30.28,NW,307,0.0,11.0,76,0.00,,BKN018,0.00,VWS V15.00,2017-12-12 08:55:00,
2017-12-12 03:00:00,9.2,3.2,30.28,WNW,297,5.0,6.0,76,0.00,,BKN018,0.00,VWS V15.00,2017-12-12 09:00:00,
2017-12-12 03:06:00,9.0,3.0,30.28,NNW,329,2.0,8.0,76,0.00,,BKN018,0.00,VWS V15.00,2017-12-12 09:06:00,
2017-12-12 03:16:00,8.8,3.1,30.29,NW,325,6.0,12.0,77,0.00,,BKN018,0.00,VWS V15.00,2017-12-12 09:16:00,
2017-12-12 03:21:00,8.6,2.9,30.29,WNW,288,2.0,12.0,77,0.00,,BKN018,0.00,VWS V15.00,2017-12-12 09:21:00,
2017-12-12 03:26:00,8.6,2.9,30.29,NNW,328,5.0,12.0,77,0.00,,BKN018,0.00,VWS V15.00,2017-12-12 09:26:00,
2017-12-12 03:31:00,8.4,2.7,30.29,NW,318,7.0,7.0,77,0.00,,BKN018,0.00,VWS V15.00,2017-12-12 09:31:00,
2017-12-12 03:41:00,8.4,2.7,30.29,WNW,297,4.0,9.0,77,0.00,,BKN018,0.00,VWS V15.00,2017-12-12 09:41:00,
2017-12-12 03:46:00,8.4,2.7,30.29,NW,312,5.0,10.0,77,0.00,,BKN018,0.00,VWS V15.00,2017-12-12 09:46:00,
2017-12-12 03:51:00,8.4,2.7,30.29,NW,322,4.0,10.0,77,0.00,,BKN018,0.00,VWS V15.00,2017-12-12 09:51:00,
2017-12-12 03:52:00,8.3,2.6,30.29,NW,310,7.0,10.0,77,0.00,,BKN018,0.00,VWS V15.00,2017-12-12 09:52:00,
2017-12-12 03:57:00,8.3,2.6,30.29,WNW,291,7.0,10.0,77,0.00,,BKN018,0.00,VWS V15.00,2017-12-12 09:57:00,
2017-12-12 04:02:00,8.1,2.4,30.29,North,3,8.0,8.0,77,0.00,,BKN018,0.00,VWS V15.00,2017-12-12 10:02:00,
2017-12-12 04:07:00,8.1,2.4,30.29,NNW,328,3.0,8.0,77,0.00,,BKN018,0.00,VWS V15.00,2017-12-12 10:07:00,
2017-12-12 04:12:00,7.9,2.2,30.29,NW,314,7.0,8.0,77,0.00,,BKN018,0.00,VWS V15.00,2017-12-12 10:12:00,
2017-12-12 04:17:00,7.9,2.2,30.29,NNW,336,2.0,8.0,77,0.00,,BKN018,0.00,VWS V15.00,2017-12-12 10:17:00,
2017-12-12 04:22:00,7.7,2.0,30.29,NW,311,1.0,8.0,77,0.00,,BKN018,0.00,VWS V15.00,2017-12-12 10:22:00,
2017-12-12 04:27:00,7.7,1.7,30.29,NW,310,2.0,8.0,76,0.00,,BKN018,0.00,VWS V15.00,2017-12-12 10:27:00,
2017-12-12 04:37:00,7.4,1.7,30.28,NW,304,2.0,6.0,77,0.00,,BKN018,0.00,VWS V15.00,2017-12-12 10:37:00,
2017-12-12 04:42:00,7.4,1.7,30.28,NW,311,2.0,6.0,77,0.00,,BKN018,0.00,VWS V15.00,2017-12-12 10:42:00,
2017-12-12 04:47:00,7.2,1.8,30.29,NW,312,1.0,6.0,78,0.00,,BKN018,0.00,VWS V15.00,2017-12-12 10:47:00,
2017-12-12 04:52:00,7.0,1.6,30.29,NW,314,4.0,6.0,78,0.00,,BKN018,0.00,VWS V15.00,2017-12-12 10:52:00,
2017-12-12 04:57:00,6.9,1.5,30.29,NW,317,1.0,6.0,78,0.00,,BKN018,0.00,VWS V15.00,2017-12-12 10:57:00,
2017-12-12 05:02:00,6.9,1.8,30.29,NW,319,3.0,6.0,79,0.00,,BKN018,0.00,VWS V15.00,2017-12-12 11:02:00,
2017-12-12 05:07:00,6.7,1.3,30.29,NW,318,4.0,6.0,78,0.00,,BKN018,0.00,VWS V15.00,2017-12-12 11:07:00,
2017-12-12 05:12:00,6.7,1.6,30.29,NW,322,3.0,6.0,79,0.00,,BKN018,0.00,VWS V15.00,2017-12-12 11:12:00,
2017-12-12 05:27:00,6.5,1.4,30.28,NW,312,1.0,6.0,79,0.00,,BKN018,0.00,VWS V15.00,2017-12-12 11:27:00,
2017-12-12 05:32:00,6.5,1.4,30.28,NW,312,2.0,5.0,79,0.00,,BKN018,0.00,VWS V15.00,2017-12-12 11:32:00,
2017-12-12 05:38:00,6.5,1.4,30.28,NW,311,2.0,5.0,79,0.00,,BKN018,0.00,VWS V15.00,2017-12-12 11:38:00,
2017-12-12 05:43:00,6.5,1.4,30.28,NW,317,1.0,6.0,79,0.00,,BKN018,0.00,VWS V15.00,2017-12-12 11:43:00,
2017-12-12 05:48:00,6.5,1.4,30.27,NW,317,1.0,6.0,79,0.00,,BKN018,0.00,VWS V15.00,2017-12-12 11:48:00,
2017-12-12 05:53:00,6.5,1.4,30.27,NW,317,3.0,6.0,79,0.00,,BKN018,0.00,VWS V15.00,2017-12-12 11:53:00,
2017-12-12 05:58:00,6.3,1.2,30.27,North,359,2.0,6.0,79,0.00,,BKN018,0.00,VWS V15.00,2017-12-12 11:58:00,
2017-12-12 06:03:00,6.3,1.2,30.27,NNW,342,1.0,3.0,79,0.00,,BKN018,0.00,VWS V15.00,2017-12-12 12:03:00,
2017-12-12 06:08:00,6.3,1.2,30.27,NNW,339,3.0,3.0,79,0.00,,BKN018,0.00,VWS V15.00,2017-12-12 12:08:00,
2017-12-12 06:13:00,6.1,1.0,30.27,NNW,338,2.0,4.0,79,0.00,,BKN018,0.00,VWS V15.00,2017-12-12 12:13:00,
2017-12-12 06:18:00,6.1,1.3,30.27,NW,325,1.0,4.0,80,0.00,,BKN018,0.00,VWS V15.00,2017-12-12 12:18:00,
2017-12-12 06:23:00,6.1,1.3,30.27,NW,304,3.0,5.0,80,0.00,,BKN018,0.00,VWS V15.00,2017-12-12 12:23:00,
2017-12-12 06:28:00,6.3,1.2,30.27,NW,304,1.0,5.0,79,0.00,,BKN018,0.00,VWS V15.00,2017-12-12 12:28:00,
2017-12-12 06:33:00,6.3,1.5,30.27,NW,304,0.0,3.0,80,0.00,,BKN018,0.00,VWS V15.00,2017-12-12 12:33:00,